Time;durP1;ratioP1;P1;durP2;ratioP2;P2;SDS_P1;SDS_P2;PMS_P1;PMS_P2;Temp;Humidity;BMP_temperature;BMP_pressure;BME280_temperature;BME280_humidity;BME280_pressure;Samples;Min_cycle;Max_cycle;Signal;HPM_P1;HPM_P2
2021/09/05 00:00:38;;;;;;;10.45;9.40;;;20.20;70.40;;;;;;4987809;28;20201;-88
2021/09/05 00:03:04;;;;;;;12.13;9.43;;;20.10;70.30;;;;;;4983058;28;20202;-91
2021/09/05 00:05:30;;;;;;;10.00;8.98;;;20.10;70.80;;;;;;4981952;28;20317;-88
2021/09/05 00:07:55;;;;;;;9.68;8.77;;;19.80;72.40;;;;;;4997537;28;20190;-88
2021/09/05 00:10:21;;;;;;;10.98;9.60;;;19.50;74.10;;;;;;4997173;28;20266;-91
2021/09/05 00:12:47;;;;;;;12.57;11.10;;;19.30;75.40;;;;;;4983687;28;20199;-89
2021/09/05 00:15:13;;;;;;;10.07;9.05;;;19.40;74.30;;;;;;4998444;28;20244;-89
2021/09/05 00:17:40;;;;;;;10.60;9.63;;;19.30;75.30;;;;;;4991719;28;20202;-89
2021/09/05 00:20:07;;;;;;;10.70;9.65;;;19.40;73.70;;;;;;4988905;28;20271;-88
2021/09/05 00:22:33;;;;;;;10.15;9.35;;;19.50;73.20;;;;;;5001656;28;20225;-88
2021/09/05 00:24:59;;;;;;;11.45;10.45;;;19.40;74.30;;;;;;5002345;28;20209;-88
2021/09/05 00:27:25;;;;;;;9.15;8.40;;;19.10;74.30;;;;;;5004782;28;20166;-88
2021/09/05 00:29:51;;;;;;;9.48;8.77;;;19.20;74.50;;;;;;4999866;28;20259;-89
2021/09/05 00:32:17;;;;;;;9.75;8.80;;;19.40;73.80;;;;;;5003253;28;20226;-89
2021/09/05 00:34:42;;;;;;;9.20;8.40;;;19.50;72.70;;;;;;5005313;28;20213;-88
2021/09/05 00:37:08;;;;;;;9.85;8.95;;;19.50;72.80;;;;;;5003444;28;20218;-89
2021/09/05 00:39:34;;;;;;;11.00;8.88;;;19.40;73.30;;;;;;4998238;28;20207;-89
2021/09/05 00:42:00;;;;;;;10.07;9.02;;;19.40;73.20;;;;;;4993421;28;20214;-91
2021/09/05 00:44:25;;;;;;;9.48;8.68;;;19.50;73.00;;;;;;4998064;28;20214;-89
2021/09/05 00:46:51;;;;;;;10.25;9.05;;;19.60;72.30;;;;;;4989710;28;20183;-88
2021/09/05 00:49:17;;;;;;;10.60;9.45;;;19.50;72.10;;;;;;4999060;28;20212;-88
2021/09/05 00:51:43;;;;;;;10.93;9.82;;;19.50;71.70;;;;;;5003300;28;20258;-88
2021/09/05 00:54:11;;;;;;;9.15;8.38;;;19.40;72.00;;;;;;5015575;28;20225;-87
2021/09/05 00:56:42;;;;;;;8.90;8.18;;;19.40;72.40;;;;;;5012730;28;20185;-88
2021/09/05 00:59:12;;;;;;;9.48;8.65;;;19.40;72.20;;;;;;5009766;28;20237;-88
2021/09/05 01:01:39;;;;;;;9.40;8.70;;;19.50;72.10;;;;;;4988522;28;20229;-90
2021/09/05 01:04:05;;;;;;;9.48;8.65;;;19.40;72.20;;;;;;5012081;28;20190;-89
2021/09/05 01:06:35;;;;;;;9.32;8.63;;;19.20;73.30;;;;;;4996210;28;20260;-89
2021/09/05 01:09:03;;;;;;;9.98;9.00;;;19.10;73.50;;;;;;4995470;28;20233;-90
2021/09/05 01:11:32;;;;;;;10.07;8.95;;;19.00;73.60;;;;;;4998377;28;20259;-89
2021/09/05 01:13:58;;;;;;;9.18;8.43;;;19.20;74.10;;;;;;5003751;28;20692;-90
2021/09/05 01:16:38;;;;;;;9.68;8.77;;;19.20;73.60;;;;;;4991701;28;20197;-89
2021/09/05 01:19:09;;;;;;;9.75;8.70;;;19.20;73.40;;;;;;4993981;28;20230;-90
2021/09/05 01:21:36;;;;;;;9.82;8.90;;;19.30;73.30;;;;;;5004276;28;20190;-89
2021/09/05 01:24:03;;;;;;;9.05;8.15;;;19.40;73.10;;;;;;5002122;28;20206;-89
2021/09/05 01:26:31;;;;;;;9.25;8.30;;;19.40;72.00;;;;;;4996759;28;20225;-90
2021/09/05 01:28:57;;;;;;;9.43;8.63;;;19.00;71.70;;;;;;4996123;28;20186;-89
2021/09/05 01:31:26;;;;;;;8.82;8.13;;;18.60;73.90;;;;;;4997215;28;20221;-89
2021/09/05 01:33:52;;;;;;;10.00;9.10;;;18.60;75.30;;;;;;4994356;28;20202;-89
2021/09/05 01:36:18;;;;;;;10.43;9.52;;;18.70;74.50;;;;;;4994146;28;20602;-90
2021/09/05 01:38:44;;;;;;;9.90;9.07;;;18.80;74.90;;;;;;4979948;28;20291;-90
2021/09/05 01:41:10;;;;;;;9.85;8.90;;;18.80;75.30;;;;;;4995553;28;20233;-90
2021/09/05 01:43:37;;;;;;;9.60;8.77;;;18.80;75.10;;;;;;5007690;28;20191;-89
2021/09/05 01:46:03;;;;;;;10.15;9.20;;;19.00;75.10;;;;;;4995576;28;20206;-89
2021/09/05 01:48:29;;;;;;;10.23;9.32;;;19.10;74.60;;;;;;4996105;28;20198;-89
2021/09/05 01:50:54;;;;;;;9.95;9.05;;;19.20;74.20;;;;;;4994041;28;20261;-89
2021/09/05 01:53:20;;;;;;;9.88;9.02;;;19.30;74.00;;;;;;4993645;28;20206;-89
2021/09/05 01:55:46;;;;;;;9.88;8.98;;;19.10;73.90;;;;;;4994513;28;20905;-89
2021/09/05 01:58:11;;;;;;;9.00;8.20;;;18.80;74.70;;;;;;4995528;28;20229;-89
2021/09/05 02:00:37;;;;;;;9.60;8.32;;;18.80;75.20;;;;;;4992090;28;20186;-90
2021/09/05 02:03:03;;;;;;;9.30;8.50;;;18.90;74.50;;;;;;4995249;28;20198;-89
2021/09/05 02:05:29;;;;;;;9.65;8.68;;;19.00;74.20;;;;;;4981245;28;20219;-90
2021/09/05 02:07:55;;;;;;;9.50;8.70;;;19.00;73.60;;;;;;4984030;28;20214;-89
2021/09/05 02:10:20;;;;;;;10.23;9.27;;;19.00;73.30;;;;;;4994200;28;20262;-89
2021/09/05 02:12:46;;;;;;;9.15;8.35;;;18.70;74.70;;;;;;4980166;28;20198;-89
2021/09/05 02:15:12;;;;;;;9.80;8.95;;;18.40;76.20;;;;;;4992090;28;20217;-89
2021/09/05 02:17:37;;;;;;;9.38;8.60;;;18.40;76.70;;;;;;4992594;28;20677;-90
2021/09/05 02:20:04;;;;;;;8.75;8.02;;;18.60;76.10;;;;;;4997496;28;20237;-89
2021/09/05 02:22:29;;;;;;;9.60;8.80;;;18.70;75.20;;;;;;4992698;28;20256;-90
2021/09/05 02:24:55;;;;;;;9.02;8.32;;;18.80;75.00;;;;;;4993519;28;20682;-90
2021/09/05 02:27:21;;;;;;;9.30;8.50;;;18.80;74.40;;;;;;4995770;28;20219;-90
2021/09/05 02:29:46;;;;;;;8.77;7.85;;;18.80;74.20;;;;;;5009650;28;20194;-90
2021/09/05 02:32:12;;;;;;;9.52;8.63;;;18.90;73.90;;;;;;4990578;28;20215;-90
2021/09/05 02:34:38;;;;;;;10.02;9.18;;;19.00;73.50;;;;;;4993090;28;20214;-89
2021/09/05 02:37:03;;;;;;;9.45;8.50;;;19.00;73.50;;;;;;4995208;28;20197;-89
2021/09/05 02:39:29;;;;;;;10.27;9.38;;;18.90;73.70;;;;;;4987895;28;20733;-90
2021/09/05 02:41:55;;;;;;;10.02;8.95;;;18.80;74.30;;;;;;4984161;28;20676;-89
2021/09/05 02:44:21;;;;;;;9.10;8.30;;;18.80;74.10;;;;;;4980002;28;20908;-90
2021/09/05 02:46:46;;;;;;;8.85;8.15;;;18.80;74.20;;;;;;4992403;28;20201;-89
2021/09/05 02:49:12;;;;;;;9.43;8.55;;;18.80;73.70;;;;;;4990800;28;20195;-89
2021/09/05 02:51:39;;;;;;;8.82;8.05;;;18.80;74.30;;;;;;4995529;28;20187;-90
2021/09/05 02:54:05;;;;;;;10.13;9.20;;;18.80;74.00;;;;;;5001060;28;20303;-90
2021/09/05 02:56:31;;;;;;;8.70;8.00;;;18.60;74.40;;;;;;4986990;28;20270;-89
2021/09/05 02:58:57;;;;;;;10.45;9.40;;;18.50;75.20;;;;;;4987495;28;20265;-89
2021/09/05 03:01:23;;;;;;;10.52;9.30;;;18.40;75.60;;;;;;4999887;28;20214;-89
2021/09/05 03:03:49;;;;;;;8.73;7.93;;;18.40;76.10;;;;;;4996797;28;20216;-89
2021/09/05 03:06:16;;;;;;;8.77;8.07;;;18.40;76.00;;;;;;4996427;28;20233;-89
2021/09/05 03:08:42;;;;;;;8.80;8.07;;;18.40;76.00;;;;;;4997262;28;20245;-89
2021/09/05 03:11:08;;;;;;;9.18;8.48;;;18.40;75.20;;;;;;4994252;28;20202;-89
2021/09/05 03:13:34;;;;;;;9.90;8.88;;;18.40;75.00;;;;;;4991237;28;20244;-89
2021/09/05 03:16:00;;;;;;;8.93;8.07;;;18.40;74.60;;;;;;4984045;28;20210;-90
2021/09/05 03:18:25;;;;;;;8.57;7.88;;;18.40;75.30;;;;;;4998572;28;20232;-89
2021/09/05 03:20:51;;;;;;;8.40;7.80;;;18.40;75.10;;;;;;4997753;28;20194;-90
2021/09/05 03:23:17;;;;;;;8.48;7.72;;;18.50;74.90;;;;;;4996944;28;20198;-90
2021/09/05 03:25:43;;;;;;;8.13;7.43;;;18.50;74.70;;;;;;4998933;28;20202;-89
2021/09/05 03:28:09;;;;;;;8.82;7.97;;;18.60;74.30;;;;;;4996093;28;20186;-90
2021/09/05 03:30:35;;;;;;;9.50;8.70;;;18.60;74.10;;;;;;4995911;28;20205;-90
2021/09/05 03:33:01;;;;;;;9.02;8.32;;;18.70;74.00;;;;;;4995220;28;20217;-89
2021/09/05 03:35:27;;;;;;;8.90;8.20;;;18.70;74.00;;;;;;4989411;28;20206;-89
2021/09/05 03:37:53;;;;;;;8.43;7.72;;;18.70;73.60;;;;;;5002243;28;20701;-91
2021/09/05 03:40:18;;;;;;;8.93;8.13;;;18.60;73.10;;;;;;4981522;28;20218;-89
2021/09/05 03:42:44;;;;;;;8.32;7.53;;;18.40;73.90;;;;;;5011705;28;20201;-90
2021/09/05 03:45:10;;;;;;;11.80;7.93;;;18.30;74.40;;;;;;4990117;28;20210;-90
2021/09/05 03:47:36;;;;;;;8.07;7.47;;;18.20;75.40;;;;;;4985354;28;20277;-89
2021/09/05 03:50:02;;;;;;;8.10;7.40;;;18.30;75.30;;;;;;4982788;28;20223;-89
2021/09/05 03:52:28;;;;;;;9.55;7.97;;;18.40;74.50;;;;;;4993930;28;20274;-90
2021/09/05 03:54:54;;;;;;;9.50;8.60;;;18.30;74.90;;;;;;4996188;28;20238;-89
2021/09/05 03:57:20;;;;;;;8.70;7.90;;;18.20;75.00;;;;;;4998973;28;20562;-90
2021/09/05 03:59:45;;;;;;;8.32;7.70;;;18.20;75.60;;;;;;4993896;28;20214;-90
2021/09/05 04:02:11;;;;;;;8.30;7.60;;;18.10;76.20;;;;;;4996745;28;20705;-89
2021/09/05 04:04:37;;;;;;;8.75;7.78;;;18.20;75.80;;;;;;4994870;28;20210;-90
2021/09/05 04:07:03;;;;;;;9.00;8.23;;;18.20;75.40;;;;;;4994122;28;20209;-90
2021/09/05 04:12:14;;;;;;;8.75;7.95;;;18.20;75.70;;;;;;4992945;28;20277;-89
2021/09/05 04:14:39;;;;;;;8.98;8.27;;;18.20;75.80;;;;;;4995945;28;20213;-89
2021/09/05 04:17:06;;;;;;;9.23;8.45;;;18.30;76.40;;;;;;5005221;28;20691;-90
2021/09/05 04:19:32;;;;;;;8.88;7.97;;;18.40;75.30;;;;;;4984113;28;20267;-90
2021/09/05 04:21:57;;;;;;;9.40;8.68;;;18.20;75.20;;;;;;4995960;28;20202;-89
2021/09/05 04:24:23;;;;;;;8.85;8.15;;;17.80;76.80;;;;;;5006909;28;20217;-89
2021/09/05 04:26:49;;;;;;;9.32;8.52;;;17.80;77.80;;;;;;4993342;28;20200;-89
2021/09/05 04:29:15;;;;;;;9.35;8.45;;;17.90;77.90;;;;;;4993533;28;20248;-89
2021/09/05 04:31:41;;;;;;;8.88;7.97;;;17.90;77.30;;;;;;5001911;28;20205;-90
2021/09/05 04:34:07;;;;;;;8.55;7.60;;;17.90;77.10;;;;;;4983995;28;20201;-90
2021/09/05 04:36:33;;;;;;;8.43;7.63;;;17.90;77.70;;;;;;4984850;28;20206;-90
2021/09/05 04:38:59;;;;;;;8.82;8.02;;;18.00;77.60;;;;;;4991949;28;20686;-89
2021/09/05 04:41:24;;;;;;;11.50;8.23;;;18.00;77.40;;;;;;4989780;28;20663;-90
2021/09/05 04:43:50;;;;;;;9.48;8.68;;;17.90;78.00;;;;;;4991868;28;20210;-90
2021/09/05 04:46:16;;;;;;;9.95;8.63;;;17.90;78.30;;;;;;4995955;28;20273;-90
2021/09/05 04:48:41;;;;;;;8.60;7.75;;;17.80;78.00;;;;;;4994616;28;20236;-90
2021/09/05 04:51:07;;;;;;;8.63;7.83;;;17.80;77.80;;;;;;4993325;28;20264;-90
2021/09/05 04:53:33;;;;;;;8.52;7.82;;;17.80;77.80;;;;;;4996967;28;20197;-90
2021/09/05 04:55:58;;;;;;;8.90;8.10;;;17.90;77.30;;;;;;4994316;28;20221;-90
2021/09/05 04:58:24;;;;;;;7.97;7.28;;;17.90;77.10;;;;;;4991265;28;20209;-90
2021/09/05 05:00:50;;;;;;;8.65;7.85;;;18.00;76.70;;;;;;4982263;28;20207;-90
2021/09/05 05:03:18;;;;;;;8.50;7.80;;;18.20;76.40;;;;;;4983463;28;20207;-90
2021/09/05 05:05:44;;;;;;;8.23;7.53;;;18.20;76.10;;;;;;4974267;28;20370;-90
2021/09/05 05:08:10;;;;;;;9.35;8.65;;;18.20;75.70;;;;;;4993320;28;20689;-90
2021/09/05 05:10:36;;;;;;;8.80;8.07;;;18.20;75.30;;;;;;4987284;28;20201;-90
2021/09/05 05:13:01;;;;;;;20.17;10.00;;;18.20;76.10;;;;;;4989802;28;20228;-90
2021/09/05 05:15:27;;;;;;;9.07;8.05;;;18.20;76.10;;;;;;4991829;28;20222;-90
2021/09/05 05:17:53;;;;;;;12.27;8.32;;;18.10;76.20;;;;;;5005386;28;20197;-90
2021/09/05 05:20:19;;;;;;;8.85;8.07;;;17.90;76.00;;;;;;4992888;28;20221;-90
2021/09/05 05:22:46;;;;;;;9.43;8.63;;;17.50;78.10;;;;;;4992249;28;20230;-90
2021/09/05 05:25:12;;;;;;;8.50;7.70;;;17.50;78.70;;;;;;4995501;28;20295;-90
2021/09/05 05:27:38;;;;;;;8.53;7.83;;;17.60;78.40;;;;;;4987950;28;20236;-90
2021/09/05 05:30:05;;;;;;;9.05;8.25;;;17.70;77.90;;;;;;4987835;28;20654;-89
2021/09/05 05:32:31;;;;;;;9.13;8.30;;;17.80;77.40;;;;;;4994868;28;20207;-90
2021/09/05 05:34:57;;;;;;;9.20;7.72;;;17.70;77.70;;;;;;4994621;28;20206;-90
2021/09/05 05:37:23;;;;;;;8.32;7.63;;;17.70;77.60;;;;;;4975649;28;20271;-89
2021/09/05 05:39:49;;;;;;;8.93;8.10;;;17.70;78.20;;;;;;5018808;28;20238;-90
2021/09/05 05:42:15;;;;;;;9.07;8.38;;;17.80;77.90;;;;;;5003118;28;20669;-90
2021/09/05 05:44:40;;;;;;;8.25;7.65;;;17.90;77.40;;;;;;5001685;28;20293;-91
2021/09/05 05:47:06;;;;;;;8.77;8.07;;;18.00;76.90;;;;;;4991774;28;20197;-90
2021/09/05 05:49:34;;;;;;;8.95;8.05;;;18.10;76.50;;;;;;4991572;28;20304;-91
2021/09/05 05:52:00;;;;;;;8.35;7.65;;;18.00;76.70;;;;;;4994206;28;20202;-90
2021/09/05 05:54:26;;;;;;;11.33;8.27;;;17.70;78.20;;;;;;4992355;28;20213;-90
2021/09/05 05:56:52;;;;;;;8.37;7.60;;;17.40;79.80;;;;;;4993073;28;20202;-90
2021/09/05 05:59:17;;;;;;;10.70;8.80;;;17.20;81.60;;;;;;4990991;28;20223;-90
2021/09/05 06:01:43;;;;;;;8.47;7.70;;;17.30;80.70;;;;;;4990992;28;20196;-90
2021/09/05 06:04:09;;;;;;;8.53;7.73;;;17.40;80.40;;;;;;4993552;28;20205;-90
2021/09/05 06:06:35;;;;;;;9.77;8.87;;;17.50;80.10;;;;;;4988063;28;20205;-90
2021/09/05 06:09:01;;;;;;;9.23;8.43;;;17.60;79.50;;;;;;5010485;28;20574;-90
2021/09/05 06:11:27;;;;;;;8.70;7.83;;;17.50;80.10;;;;;;5006334;28;20550;-90
2021/09/05 06:13:54;;;;;;;8.53;7.93;;;17.60;79.70;;;;;;4992228;28;20248;-90
2021/09/05 06:16:19;;;;;;;9.05;8.07;;;17.80;79.10;;;;;;4995059;28;20244;-90
2021/09/05 06:18:46;;;;;;;9.18;8.35;;;18.00;78.70;;;;;;4992432;28;20224;-90
2021/09/05 06:21:12;;;;;;;9.18;8.27;;;18.00;78.20;;;;;;4990620;28;20196;-90
2021/09/05 06:23:37;;;;;;;9.25;8.07;;;18.20;78.10;;;;;;4995168;28;20737;-90
2021/09/05 06:26:03;;;;;;;9.68;8.77;;;18.30;77.70;;;;;;5006771;28;20560;-90
2021/09/05 06:28:29;;;;;;;9.23;8.43;;;18.40;77.60;;;;;;4990942;28;20201;-89
2021/09/05 06:30:55;;;;;;;9.77;8.88;;;18.40;78.10;;;;;;4993422;28;20551;-90
2021/09/05 06:33:20;;;;;;;9.23;8.32;;;18.40;79.30;;;;;;4990006;28;20261;-90
2021/09/05 06:35:46;;;;;;;7.97;7.35;;;18.50;78.60;;;;;;4993117;28;20303;-89
2021/09/05 06:38:12;;;;;;;9.35;8.25;;;18.60;78.50;;;;;;4989524;28;20249;-88
2021/09/05 06:40:38;;;;;;;10.10;9.10;;;18.60;78.40;;;;;;4990547;28;20264;-89
2021/09/05 06:43:04;;;;;;;9.48;8.68;;;18.60;78.70;;;;;;4986481;28;20214;-90
2021/09/05 06:45:32;;;;;;;8.73;7.93;;;18.50;79.50;;;;;;4987829;28;20210;-89
2021/09/05 06:47:58;;;;;;;9.30;8.40;;;18.50;79.80;;;;;;4989828;28;20713;-89
2021/09/05 06:50:24;;;;;;;14.02;8.63;;;18.50;80.10;;;;;;4984482;28;20202;-89
2021/09/05 06:52:50;;;;;;;9.85;8.90;;;18.60;80.10;;;;;;4989414;28;20194;-89
2021/09/05 06:55:16;;;;;;;9.75;8.95;;;18.60;78.40;;;;;;4982621;28;20214;-87
2021/09/05 06:57:41;;;;;;;9.73;8.93;;;18.70;77.80;;;;;;4993841;28;20244;-89
2021/09/05 07:00:08;;;;;;;10.85;9.82;;;18.70;77.60;;;;;;4989817;28;20227;-88
2021/09/05 07:02:34;;;;;;;9.90;8.95;;;18.80;76.80;;;;;;4988604;28;20291;-89
2021/09/05 07:05:00;;;;;;;9.30;8.60;;;18.80;77.50;;;;;;4992057;28;20214;-91
2021/09/05 07:07:26;;;;;;;9.75;8.90;;;18.80;76.80;;;;;;4993515;28;20917;-87
2021/09/05 07:09:52;;;;;;;10.02;9.23;;;18.80;76.50;;;;;;4991026;28;20229;-89
2021/09/05 07:12:18;;;;;;;10.35;9.45;;;18.70;76.50;;;;;;4994549;28;20208;-88
2021/09/05 07:14:43;;;;;;;10.20;9.30;;;18.80;76.20;;;;;;4993418;28;20276;-88
2021/09/05 07:17:09;;;;;;;10.40;9.02;;;18.90;76.20;;;;;;4991328;28;20265;-90
2021/09/05 07:19:35;;;;;;;9.88;8.90;;;18.90;75.30;;;;;;4991480;28;20267;-88
2021/09/05 07:22:00;;;;;;;8.35;7.75;;;19.10;74.50;;;;;;4981168;28;20186;-88
2021/09/05 07:24:26;;;;;;;9.68;8.80;;;19.20;74.50;;;;;;4991649;28;20215;-88
2021/09/05 07:26:52;;;;;;;9.68;8.50;;;19.30;73.60;;;;;;4995137;28;20202;-90
2021/09/05 07:29:18;;;;;;;9.07;8.27;;;19.30;72.40;;;;;;4996412;28;20186;-87
2021/09/05 07:31:45;;;;;;;10.43;8.38;;;19.50;71.90;;;;;;4992442;28;20562;-87
2021/09/05 07:34:11;;;;;;;10.13;9.13;;;19.70;71.60;;;;;;4994054;28;20190;-86
2021/09/05 07:36:36;;;;;;;9.32;8.52;;;19.80;71.40;;;;;;4992452;28;20899;-87
2021/09/05 07:39:03;;;;;;;9.70;8.80;;;19.70;71.40;;;;;;5002422;28;20198;-86
2021/09/05 07:41:29;;;;;;;10.27;9.23;;;19.80;71.30;;;;;;5006741;28;20213;-87
2021/09/05 07:43:55;;;;;;;9.05;8.32;;;19.80;71.60;;;;;;5007476;28;20186;-87
2021/09/05 07:46:21;;;;;;;9.77;8.88;;;20.00;71.00;;;;;;4998002;28;20192;-87
2021/09/05 07:48:47;;;;;;;10.68;9.60;;;20.10;71.60;;;;;;4992218;28;20242;-87
2021/09/05 07:51:13;;;;;;;9.18;8.48;;;20.10;72.60;;;;;;4990957;28;20301;-87
2021/09/05 07:53:39;;;;;;;9.57;8.75;;;20.00;72.40;;;;;;4993001;28;20199;-87
2021/09/05 07:56:04;;;;;;;9.63;8.63;;;20.00;73.60;;;;;;4995658;28;20281;-88
2021/09/05 07:58:30;;;;;;;10.40;9.20;;;20.10;73.20;;;;;;4988841;28;20229;-87
2021/09/05 08:00:56;;;;;;;9.30;8.50;;;20.20;72.40;;;;;;4994751;28;20206;-88
2021/09/05 08:03:22;;;;;;;9.55;8.70;;;20.30;71.60;;;;;;4992265;28;20187;-87
2021/09/05 08:05:48;;;;;;;10.20;9.20;;;20.30;71.50;;;;;;4992661;28;20227;-87
2021/09/05 08:08:15;;;;;;;9.45;8.50;;;20.30;72.30;;;;;;4996170;28;20192;-87
2021/09/05 08:10:41;;;;;;;9.45;8.65;;;20.40;71.30;;;;;;4984926;28;20196;-88
2021/09/05 08:13:07;;;;;;;9.77;8.98;;;20.40;71.20;;;;;;4983034;28;20232;-87
2021/09/05 08:15:32;;;;;;;9.43;8.60;;;20.40;71.60;;;;;;4989995;28;20699;-87
2021/09/05 08:17:58;;;;;;;10.60;9.60;;;20.50;71.40;;;;;;4990006;28;20217;-87
2021/09/05 08:20:24;;;;;;;10.50;9.50;;;20.60;70.50;;;;;;4987755;28;20225;-88
2021/09/05 08:22:49;;;;;;;9.75;8.73;;;20.60;71.00;;;;;;4991123;28;20190;-88
2021/09/05 08:25:16;;;;;;;10.05;9.10;;;20.50;70.40;;;;;;4995880;28;20223;-88
2021/09/05 08:27:41;;;;;;;10.18;9.38;;;20.70;70.80;;;;;;4986531;28;20192;-88
2021/09/05 08:30:08;;;;;;;10.27;9.10;;;20.60;71.40;;;;;;4990297;28;20206;-88
2021/09/05 08:32:34;;;;;;;9.68;8.77;;;20.80;69.60;;;;;;4998623;28;20193;-87
2021/09/05 08:35:00;;;;;;;10.55;9.65;;;20.90;69.20;;;;;;4997646;28;20732;-88
2021/09/05 08:37:26;;;;;;;9.88;9.02;;;21.10;68.70;;;;;;4996369;28;20224;-88
2021/09/05 08:39:51;;;;;;;10.35;9.40;;;21.20;68.20;;;;;;4996773;28;20586;-87
2021/09/05 08:42:17;;;;;;;9.80;8.90;;;21.30;68.00;;;;;;5000560;28;20243;-87
2021/09/05 08:44:44;;;;;;;8.95;8.25;;;21.30;68.40;;;;;;4995805;28;20219;-87
2021/09/05 08:47:09;;;;;;;9.70;8.80;;;21.30;68.70;;;;;;4979291;28;20281;-89
2021/09/05 08:49:36;;;;;;;9.80;8.88;;;21.50;67.70;;;;;;4998584;28;20237;-88
2021/09/05 08:52:04;;;;;;;9.90;9.10;;;21.50;68.10;;;;;;4993078;28;20255;-88
2021/09/05 08:54:30;;;;;;;10.63;9.73;;;21.50;66.70;;;;;;4992478;28;20210;-88
2021/09/05 08:56:56;;;;;;;10.10;9.15;;;21.60;66.00;;;;;;4997835;28;20340;-88
2021/09/05 08:59:21;;;;;;;8.82;8.13;;;21.60;66.10;;;;;;4995134;28;20238;-88
2021/09/05 09:02:01;;;;;;;9.88;9.00;;;21.90;65.30;;;;;;4988350;28;20201;-88
2021/09/05 09:04:38;;;;;;;9.48;8.68;;;22.00;65.20;;;;;;4986311;28;20746;-88
2021/09/05 09:07:12;;;;;;;9.48;8.77;;;22.10;66.20;;;;;;4997648;28;20269;-88
2021/09/05 09:09:43;;;;;;;9.35;8.45;;;22.10;64.90;;;;;;4995703;28;20201;-88
2021/09/05 09:12:09;;;;;;;9.68;8.88;;;22.10;64.90;;;;;;4994308;28;20277;-88
2021/09/05 09:14:45;;;;;;;9.30;8.50;;;22.30;64.00;;;;;;4977292;28;20249;-88
2021/09/05 09:17:12;;;;;;;10.10;9.20;;;22.60;64.00;;;;;;4991786;28;20183;-88
2021/09/05 09:19:43;;;;;;;10.02;9.23;;;22.60;62.90;;;;;;4994712;28;20214;-88
2021/09/05 09:22:19;;;;;;;9.20;8.50;;;22.60;63.40;;;;;;4977777;28;20280;-88
2021/09/05 09:24:45;;;;;;;9.52;8.73;;;22.80;63.00;;;;;;4996861;28;20203;-88
2021/09/05 09:27:12;;;;;;;9.60;8.85;;;22.80;62.90;;;;;;4981965;28;20198;-88
2021/09/05 09:29:39;;;;;;;9.93;9.05;;;23.10;62.50;;;;;;4992100;28;20209;-88
2021/09/05 09:32:19;;;;;;;9.95;9.13;;;23.10;62.50;;;;;;4992368;28;20885;-88
2021/09/05 09:34:47;;;;;;;10.13;9.32;;;23.20;61.70;;;;;;4987118;28;20213;-90
2021/09/05 09:37:17;;;;;;;9.57;8.68;;;23.40;61.70;;;;;;4987271;28;20200;-89
2021/09/05 09:39:49;;;;;;;8.90;8.07;;;23.40;60.80;;;;;;5002814;28;20226;-89
2021/09/05 09:42:34;;;;;;;9.70;9.00;;;23.40;61.20;;;;;;4991961;28;20187;-89
2021/09/05 09:45:01;;;;;;;10.20;9.23;;;23.60;60.10;;;;;;5014225;28;20297;-89
2021/09/05 09:47:43;;;;;;;10.55;9.50;;;23.80;58.70;;;;;;4975328;28;20194;-88
2021/09/05 09:50:09;;;;;;;9.60;8.63;;;23.90;58.80;;;;;;4983624;28;20190;-87
2021/09/05 09:52:36;;;;;;;9.48;8.70;;;23.90;59.00;;;;;;4977672;28;20244;-87
2021/09/05 09:55:03;;;;;;;10.20;9.30;;;24.00;58.30;;;;;;4990924;28;20297;-88
2021/09/05 09:57:29;;;;;;;9.75;8.95;;;24.20;57.80;;;;;;4993285;28;20225;-88
2021/09/05 09:59:55;;;;;;;9.60;8.80;;;24.30;57.80;;;;;;4995439;28;20214;-88
2021/09/05 10:02:26;;;;;;;8.88;8.07;;;24.50;58.60;;;;;;4996186;28;20729;-88
2021/09/05 10:04:53;;;;;;;9.50;8.80;;;24.80;56.90;;;;;;4992776;28;20214;-88
2021/09/05 10:07:22;;;;;;;9.85;9.00;;;25.00;55.90;;;;;;4995558;28;20191;-88
2021/09/05 10:09:51;;;;;;;10.88;8.73;;;25.00;55.60;;;;;;4991066;28;20199;-88
2021/09/05 10:12:18;;;;;;;9.63;8.63;;;25.10;55.80;;;;;;4971676;28;20292;-89
2021/09/05 10:14:51;;;;;;;10.18;8.90;;;25.30;56.00;;;;;;5004910;28;20233;-88
2021/09/05 10:17:18;;;;;;;9.50;8.65;;;25.60;54.80;;;;;;4987321;28;20186;-88
2021/09/05 10:19:45;;;;;;;9.80;9.05;;;25.70;53.10;;;;;;4976695;28;20237;-88
2021/09/05 10:22:11;;;;;;;10.10;9.20;;;25.50;53.90;;;;;;4991359;28;20198;-88
2021/09/05 10:24:46;;;;;;;10.25;9.32;;;25.60;53.70;;;;;;4994060;28;20209;-88
2021/09/05 10:27:11;;;;;;;9.52;8.73;;;25.60;53.20;;;;;;5010346;28;20194;-88
2021/09/05 10:29:37;;;;;;;8.95;8.25;;;25.60;53.80;;;;;;4993064;28;20220;-88
2021/09/05 10:32:03;;;;;;;9.73;8.70;;;25.70;53.60;;;;;;4993371;28;20198;-88
2021/09/05 10:34:34;;;;;;;9.63;8.73;;;26.10;53.00;;;;;;4994688;28;20222;-88
2021/09/05 10:37:11;;;;;;;8.98;8.32;;;26.40;52.20;;;;;;4992170;28;20191;-88
2021/09/05 10:40:06;;;;;;;9.85;8.93;;;26.40;52.50;;;;;;4972794;28;20305;-88
2021/09/05 10:42:32;;;;;;;9.63;8.68;;;26.40;52.90;;;;;;4993156;28;20186;-88
2021/09/05 10:45:08;;;;;;;10.30;9.40;;;26.50;52.40;;;;;;4980150;28;20206;-89
2021/09/05 10:47:42;;;;;;;9.43;8.63;;;26.70;51.90;;;;;;4985121;28;20276;-90
2021/09/05 10:50:32;;;;;;;9.52;8.73;;;26.80;51.10;;;;;;4977067;28;20199;-88
2021/09/05 10:53:17;;;;;;;9.25;8.50;;;27.00;51.50;;;;;;4978773;28;20691;-90
2021/09/05 10:56:06;;;;;;;9.35;8.43;;;27.10;51.70;;;;;;4982715;28;20210;-90
2021/09/05 10:59:26;;;;;;;10.25;9.35;;;27.30;52.20;;;;;;4988098;28;20258;-90
2021/09/05 11:01:52;;;;;;;10.45;9.65;;;27.40;53.20;;;;;;4987280;28;20198;-90
2021/09/05 11:04:21;;;;;;;10.00;9.10;;;27.40;52.60;;;;;;4986978;28;20210;-88
2021/09/05 11:07:08;;;;;;;10.50;9.60;;;27.50;52.70;;;;;;4981628;28;20203;-88
2021/09/05 11:09:33;;;;;;;10.90;10.02;;;27.70;52.90;;;;;;4988482;28;20190;-88
2021/09/05 11:12:11;;;;;;;10.73;9.73;;;27.60;52.20;;;;;;4993468;28;20221;-88
2021/09/05 11:14:37;;;;;;;10.23;9.40;;;27.60;52.30;;;;;;4984020;28;20223;-88
2021/09/05 11:17:09;;;;;;;10.30;9.40;;;28.20;52.30;;;;;;4984367;28;20779;-88
2021/09/05 11:19:34;;;;;;;10.63;9.77;;;28.40;49.30;;;;;;4995751;28;20683;-88
2021/09/05 11:22:04;;;;;;;10.20;9.18;;;28.20;50.30;;;;;;4993030;28;20188;-89
2021/09/05 11:24:30;;;;;;;9.95;8.95;;;28.40;49.50;;;;;;4994359;28;20301;-89
2021/09/05 11:27:04;;;;;;;10.02;9.07;;;28.70;49.40;;;;;;4993216;28;20190;-89
2021/09/05 11:29:30;;;;;;;9.25;8.50;;;28.70;47.20;;;;;;4998679;28;20252;-89
2021/09/05 11:31:59;;;;;;;9.90;9.00;;;28.80;49.20;;;;;;4997114;28;20276;-89
2021/09/05 11:34:26;;;;;;;10.30;9.00;;;29.20;48.00;;;;;;4997798;28;20217;-90
2021/09/05 11:36:54;;;;;;;9.70;8.85;;;29.20;47.10;;;;;;4994978;28;20748;-89
2021/09/05 11:39:20;;;;;;;9.68;8.93;;;29.20;45.50;;;;;;4995735;28;20292;-91
2021/09/05 11:41:55;;;;;;;9.75;8.93;;;29.40;47.00;;;;;;4994281;28;20190;-90
2021/09/05 11:44:34;;;;;;;9.82;8.93;;;29.50;44.80;;;;;;5001389;28;20217;-90
2021/09/05 11:47:17;;;;;;;9.77;9.07;;;29.60;44.80;;;;;;5001264;28;20281;-88
2021/09/05 11:49:54;;;;;;;9.90;9.00;;;29.50;44.80;;;;;;4998651;28;20197;-90
2021/09/05 11:52:21;;;;;;;12.10;9.27;;;29.60;45.40;;;;;;4994191;28;20202;-89
2021/09/05 11:54:48;;;;;;;10.57;9.52;;;30.10;45.20;;;;;;4997794;28;20863;-92
2021/09/05 11:57:15;;;;;;;9.88;9.07;;;30.30;45.40;;;;;;4997670;28;20253;-89
2021/09/05 11:59:40;;;;;;;9.68;8.65;;;30.40;44.40;;;;;;4998158;28;20241;-89
2021/09/05 12:02:07;;;;;;;8.82;7.95;;;30.20;44.20;;;;;;4998156;28;20217;-89
2021/09/05 12:04:34;;;;;;;8.20;7.60;;;30.20;42.00;;;;;;4994461;28;20232;-90
2021/09/05 12:07:02;;;;;;;8.85;8.13;;;30.40;42.50;;;;;;4986872;28;20257;-90
2021/09/05 12:09:29;;;;;;;8.82;8.23;;;30.70;41.00;;;;;;4971218;28;20213;-88
2021/09/05 12:12:02;;;;;;;8.63;7.93;;;30.50;40.80;;;;;;4988170;28;20190;-90
2021/09/05 12:14:35;;;;;;;7.97;7.25;;;30.40;40.20;;;;;;5000860;28;20698;-90
2021/09/05 12:17:26;;;;;;;7.85;7.32;;;30.80;38.70;;;;;;4996683;28;20786;-90
2021/09/05 12:20:03;;;;;;;8.73;8.13;;;31.30;39.10;;;;;;4996039;28;20701;-89
2021/09/05 12:22:49;;;;;;;8.65;7.90;;;31.50;39.70;;;;;;4995818;28;20198;-89
2021/09/05 12:25:31;;;;;;;8.23;7.53;;;31.30;38.80;;;;;;4985262;28;20271;-90
2021/09/05 12:28:01;;;;;;;10.77;8.23;;;31.30;39.30;;;;;;4994175;28;20285;-90
2021/09/05 12:30:48;;;;;;;8.40;7.70;;;31.30;39.40;;;;;;4986646;28;20195;-89
2021/09/05 12:33:16;;;;;;;7.63;7.03;;;31.10;39.00;;;;;;4994525;28;20190;-92
2021/09/05 12:35:50;;;;;;;8.48;7.88;;;31.40;38.10;;;;;;4985331;28;20225;-90
2021/09/05 12:38:27;;;;;;;8.20;7.60;;;31.50;37.00;;;;;;5006759;28;20186;-91
2021/09/05 12:40:54;;;;;;;7.55;6.85;;;31.70;38.10;;;;;;4991763;28;20210;-90
2021/09/05 12:43:49;;;;;;;7.55;6.90;;;31.90;36.10;;;;;;4992634;28;20193;-91
2021/09/05 12:46:17;;;;;;;7.10;6.50;;;32.00;34.40;;;;;;4989040;28;20309;-90
2021/09/05 12:48:48;;;;;;;8.27;7.57;;;32.40;33.90;;;;;;4986666;28;20213;-91